Time;durP1;ratioP1;P1;durP2;ratioP2;P2;SDS_P1;SDS_P2;PMS_P1;PMS_P2;Temp;Humidity;BMP_temperature;BMP_pressure;BME280_temperature;BME280_humidity;BME280_pressure;Samples;Min_cycle;Max_cycle;Signal;HPM_P1;HPM_P2
2022/09/28 00:02:40;;;;;;;1.27;0.90;;;;;;;5.49;100.00;94878.03;10412650;28;20181;-55
2022/09/28 00:07:40;;;;;;;1.07;0.90;;;;;;;5.46;100.00;94878.38;10397019;28;20282;-55
2022/09/28 00:12:41;;;;;;;1.93;1.10;;;;;;;5.63;100.00;94876.50;10371196;28;20204;-52
2022/09/28 00:17:43;;;;;;;1.40;1.10;;;;;;;5.57;100.00;94859.00;10371481;28;20233;-53
2022/09/28 00:22:44;;;;;;;2.03;1.00;;;;;;;5.66;100.00;94863.19;10370472;28;20193;-55
2022/09/28 00:27:48;;;;;;;1.00;1.00;;;;;;;5.68;100.00;94848.22;10370691;28;20587;-60
2022/09/28 00:32:49;;;;;;;1.10;1.00;;;;;;;5.64;100.00;94847.75;10370588;28;20189;-56
2022/09/28 00:37:49;;;;;;;0.90;0.90;;;;;;;5.85;100.00;94847.13;10370272;28;20711;-59
2022/09/28 00:42:50;;;;;;;1.00;1.00;;;;;;;5.80;100.00;94838.25;10370671;28;20682;-56
2022/09/28 00:47:54;;;;;;;1.10;1.10;;;;;;;5.69;100.00;94824.66;10368812;28;20258;-56
2022/09/28 00:53:03;;;;;;;1.80;1.13;;;;;;;5.87;100.00;94826.97;10385686;28;20636;-56
2022/09/28 00:58:06;;;;;;;1.50;1.40;;;;;;;5.82;100.00;94831.91;10385307;28;20813;-53
2022/09/28 01:03:07;;;;;;;1.50;1.40;;;;;;;5.78;100.00;94822.03;10369110;28;20239;-53
2022/09/28 01:08:08;;;;;;;1.50;1.40;;;;;;;5.84;100.00;94826.53;10369480;28;20236;-54
2022/09/28 01:13:10;;;;;;;1.67;1.53;;;;;;;5.78;100.00;94819.44;10367954;28;20200;-60
2022/09/28 01:18:22;;;;;;;1.97;1.43;;;;;;;5.77;100.00;94817.81;10351483;28;20221;-53
2022/09/28 01:23:38;;;;;;;1.90;1.63;;;;;;;5.76;100.00;94814.41;10383721;28;20266;-59
2022/09/28 01:28:41;;;;;;;1.83;1.73;;;;;;;5.81;100.00;94806.88;10384863;28;20193;-58
2022/09/28 01:33:49;;;;;;;1.87;1.70;;;;;;;5.75;100.00;94809.38;10369192;28;20676;-59
2022/09/28 01:38:55;;;;;;;1.73;1.60;;;;;;;5.78;100.00;94801.25;10356221;28;20633;-57
2022/09/28 01:43:58;;;;;;;1.87;1.60;;;;;;;5.83;100.00;94798.91;10375761;28;20201;-56
2022/09/28 01:49:06;;;;;;;1.90;1.60;;;;;;;5.81;100.00;94806.09;10359670;28;20209;-56
2022/09/28 01:54:13;;;;;;;1.63;1.50;;;;;;;5.85;100.00;94797.78;10375604;28;20197;-59
2022/09/28 01:59:23;;;;;;;1.93;1.60;;;;;;;5.86;100.00;94793.38;10375348;28;20193;-58
2022/09/28 02:04:27;;;;;;;2.83;1.57;;;;;;;5.87;100.00;94792.41;10376093;28;20188;-55
2022/09/28 02:09:42;;;;;;;1.77;1.50;;;;;;;5.89;100.00;94793.03;10375982;28;20515;-59
2022/09/28 02:14:44;;;;;;;2.40;1.50;;;;;;;5.92;100.00;94782.28;10391328;28;20225;-59
2022/09/28 02:19:44;;;;;;;1.60;1.50;;;;;;;5.86;100.00;94785.56;10374283;28;20272;-57
2022/09/28 02:24:53;;;;;;;2.13;1.50;;;;;;;5.94;100.00;94782.94;10390385;28;20205;-60
2022/09/28 02:29:57;;;;;;;1.67;1.57;;;;;;;6.02;100.00;94776.88;10390579;28;20193;-56
2022/09/28 02:34:58;;;;;;;2.30;1.50;;;;;;;5.99;100.00;94774.63;10375001;28;20235;-54
2022/09/28 02:39:59;;;;;;;1.70;1.60;;;;;;;5.88;100.00;94773.22;10390394;28;20216;-57
2022/09/28 02:45:11;;;;;;;2.10;1.90;;;;;;;5.78;100.00;94762.28;10373341;28;20707;-59
2022/09/28 02:50:50;;;;;;;1.60;1.50;;;;;;;5.66;100.00;94764.47;10389770;28;20560;-57
2022/09/28 02:55:59;;;;;;;3.43;1.80;;;;;;;5.53;100.00;94765.06;10389316;28;20304;-59
2022/09/28 03:01:37;;;;;;;3.83;1.77;;;;;;;5.57;100.00;94753.31;10389416;28;20284;-58
2022/09/28 03:11:59;;;;;;;2.23;1.70;;;;;;;5.22;100.00;94745.13;10413718;28;20220;-61
2022/09/28 03:17:00;;;;;;;1.60;1.50;;;;;;;5.08;100.00;94751.06;10414515;28;20224;-62
2022/09/28 03:22:00;;;;;;;2.17;1.87;;;;;;;4.96;100.00;94741.06;10414059;28;20188;-62
2022/09/28 03:27:01;;;;;;;10.30;7.03;;;;;;;4.79;100.00;94747.31;10396443;28;20291;-63
2022/09/28 03:32:01;;;;;;;4.60;2.50;;;;;;;4.69;100.00;94755.31;10413916;28;20188;-62
2022/09/28 03:37:02;;;;;;;3.80;3.13;;;;;;;4.66;100.00;94767.81;10413627;28;20763;-61
2022/09/28 03:42:03;;;;;;;8.13;4.73;;;;;;;4.69;100.00;94770.88;10413690;28;20651;-62
2022/09/28 03:47:07;;;;;;;4.37;3.30;;;;;;;4.67;100.00;94769.41;10395893;28;20216;-61
2022/09/28 03:52:09;;;;;;;2.23;2.03;;;;;;;4.67;100.00;94778.00;10395592;28;20231;-63
2022/09/28 03:57:11;;;;;;;3.90;2.20;;;;;;;4.68;100.00;94768.44;10395186;28;20212;-62
2022/09/28 04:02:11;;;;;;;2.03;1.80;;;;;;;4.70;100.00;94750.91;10394440;28;20219;-63
2022/09/28 04:07:11;;;;;;;2.10;1.90;;;;;;;4.72;100.00;94717.84;10394271;28;20314;-62
2022/09/28 04:12:12;;;;;;;2.57;2.10;;;;;;;4.60;100.00;94726.00;10395017;28;20184;-61
2022/09/28 04:17:12;;;;;;;1.70;1.60;;;;;;;4.74;100.00;94721.88;10394489;28;20231;-63
2022/09/28 04:22:14;;;;;;;3.00;1.90;;;;;;;4.69;100.00;94718.19;10394593;28;20184;-63
2022/09/28 04:32:35;;;;;;;2.60;2.40;;;;;;;4.58;100.00;94696.84;10394324;28;20266;-61
2022/09/28 04:37:35;;;;;;;2.90;2.20;;;;;;;4.64;100.00;94690.16;10393722;28;20307;-63
2022/09/28 04:42:36;;;;;;;3.40;2.43;;;;;;;4.51;100.00;94682.91;10394008;28;20659;-63
2022/09/28 04:47:36;;;;;;;4.70;2.53;;;;;;;4.57;100.00;94673.66;10411379;28;20275;-64
2022/09/28 04:53:03;;;;;;;2.50;2.23;;;;;;;4.58;100.00;94664.88;10380640;28;20188;-64
2022/09/28 04:58:03;;;;;;;5.30;2.53;;;;;;;4.54;100.00;94679.19;10410860;28;20240;-63
2022/09/28 05:03:04;;;;;;;6.40;3.70;;;;;;;4.53;100.00;94668.00;10393420;28;20635;-62
2022/09/28 05:08:28;;;;;;;5.63;3.80;;;;;;;4.59;100.00;94656.16;10399255;28;20228;-63
2022/09/28 05:13:29;;;;;;;4.47;3.00;;;;;;;4.59;100.00;94656.16;10398387;28;20223;-63
2022/09/28 05:18:30;;;;;;;3.70;2.93;;;;;;;4.73;100.00;94652.00;10401333;28;20224;-63
2022/09/28 05:23:35;;;;;;;4.17;3.30;;;;;;;4.83;100.00;94652.59;10418953;28;20238;-62
2022/09/28 05:28:36;;;;;;;4.13;3.30;;;;;;;5.05;100.00;94645.00;10400884;28;20346;-62
2022/09/28 05:34:15;;;;;;;3.53;3.23;;;;;;;5.15;100.00;94632.59;10212511;29;20275;-63
2022/09/28 05:39:15;;;;;;;3.77;3.30;;;;;;;5.13;100.00;94626.75;10354211;28;20319;-63
2022/09/28 05:44:15;;;;;;;5.50;4.47;;;;;;;5.21;100.00;94620.69;10417976;28;20661;-62
2022/09/28 05:49:16;;;;;;;5.20;4.20;;;;;;;5.50;100.00;94601.81;10400343;28;20679;-61
2022/09/28 05:54:17;;;;;;;5.47;4.13;;;;;;;5.58;100.00;94587.94;10400071;28;20239;-63
2022/09/28 05:59:19;;;;;;;7.53;5.73;;;;;;;5.70;100.00;94576.09;10399149;28;20279;-64
2022/09/28 06:04:21;;;;;;;14.40;9.17;;;;;;;5.73;100.00;94560.16;10416563;28;20671;-64
2022/09/28 06:09:24;;;;;;;8.10;6.70;;;;;;;5.74;100.00;94546.16;10397416;28;20510;-62
2022/09/28 06:14:45;;;;;;;4.50;4.10;;;;;;;5.91;100.00;94546.78;10398763;28;20224;-63
2022/09/28 06:19:46;;;;;;;4.73;4.27;;;;;;;6.02;100.00;94537.78;10398920;28;20212;-63
2022/09/28 06:25:00;;;;;;;4.60;3.80;;;;;;;6.12;100.00;94543.47;10398181;28;20267;-62
2022/09/28 06:30:01;;;;;;;4.07;3.43;;;;;;;6.24;100.00;94538.59;10398845;28;20632;-61
2022/09/28 06:35:01;;;;;;;4.07;3.50;;;;;;;6.18;100.00;94531.53;10398339;28;20224;-61
2022/09/28 06:40:02;;;;;;;5.37;4.77;;;;;;;6.30;100.00;94547.47;10398630;28;20276;-63
2022/09/28 06:45:04;;;;;;;5.90;4.97;;;;;;;6.30;100.00;94522.25;10398021;28;20185;-64
2022/09/28 06:50:39;;;;;;;10.97;6.90;;;;;;;6.36;100.00;94538.94;10398053;28;20188;-62
2022/09/28 06:55:58;;;;;;;8.87;7.57;;;;;;;6.41;100.00;94534.78;10397375;28;20224;-63
2022/09/28 07:00:59;;;;;;;9.13;7.50;;;;;;;6.39;100.00;94534.16;10397082;28;20203;-62
2022/09/28 07:06:00;;;;;;;12.33;7.70;;;;;;;6.64;100.00;94530.41;10390004;28;20645;-61
2022/09/28 07:11:38;;;;;;;10.30;8.60;;;;;;;6.66;100.00;94531.00;10411773;28;20723;-62
2022/09/28 07:16:44;;;;;;;10.47;8.57;;;;;;;6.72;100.00;94551.91;10390619;28;20283;-64
2022/09/28 07:21:45;;;;;;;11.60;8.10;;;;;;;6.70;100.00;94551.25;10394212;28;20283;-64
2022/09/28 07:26:45;;;;;;;8.93;7.37;;;;;;;6.61;100.00;94544.56;10394425;28;20265;-60
2022/09/28 07:31:54;;;;;;;8.13;6.43;;;;;;;6.74;100.00;94547.31;10392577;28;20634;-63
2022/09/28 07:37:17;;;;;;;7.57;6.00;;;;;;;6.73;100.00;94529.28;10393138;28;20247;-63
2022/09/28 07:42:18;;;;;;;8.90;6.90;;;;;;;6.72;100.00;94530.25;10393527;28;20195;-62
2022/09/28 07:47:25;;;;;;;6.83;6.13;;;;;;;6.82;100.00;94542.97;10394076;28;20216;-61
2022/09/28 07:52:50;;;;;;;5.60;4.13;;;;;;;6.67;100.00;94551.63;10393450;28;20189;-60
2022/09/28 07:58:01;;;;;;;4.57;4.17;;;;;;;6.64;100.00;94551.22;10393124;28;20275;-62
2022/09/28 08:03:29;;;;;;;4.03;3.27;;;;;;;6.45;100.00;94568.22;10391833;28;20208;-63
2022/09/28 08:08:30;;;;;;;2.83;2.53;;;;;;;6.03;100.00;94567.94;10410760;28;20707;-64
2022/09/28 08:13:32;;;;;;;3.33;2.50;;;;;;;5.86;100.00;94575.09;10392459;28;20196;-63
2022/09/28 08:18:53;;;;;;;3.77;2.00;;;;;;;5.59;100.00;94592.94;10391814;28;20208;-62
2022/09/28 08:23:53;;;;;;;3.90;3.40;;;;;;;5.55;100.00;94586.47;10391549;28;20250;-62
2022/09/28 08:28:53;;;;;;;4.00;3.57;;;;;;;5.46;100.00;94597.94;10410108;28;20599;-63
2022/09/28 08:34:13;;;;;;;4.20;3.83;;;;;;;5.56;100.00;94605.47;10410104;28;20188;-63
2022/09/28 08:39:33;;;;;;;5.23;3.77;;;;;;;5.67;100.00;94594.66;10406975;28;20220;-63
2022/09/28 08:44:58;;;;;;;5.53;4.97;;;;;;;5.81;100.00;94587.84;10392049;28;20197;-63
2022/09/28 08:50:25;;;;;;;5.73;5.23;;;;;;;5.97;100.00;94595.50;10391681;28;20200;-64
2022/09/28 08:55:45;;;;;;;6.53;5.93;;;;;;;6.19;100.00;94596.34;10392562;28;20228;-62
2022/09/28 09:00:48;;;;;;;5.30;4.80;;;;;;;6.47;100.00;94587.06;10391621;28;20209;-63
2022/09/28 09:06:11;;;;;;;5.70;3.83;;;;;;;6.39;100.00;94580.19;10391382;28;20639;-63
2022/09/28 09:11:28;;;;;;;3.53;3.23;;;;;;;6.70;100.00;94555.69;10338908;23;20229;-63
2022/09/28 09:16:37;;;;;;;1.97;1.80;;;;;;;6.51;100.00;94547.50;10349931;28;20221;-61
2022/09/28 09:22:16;;;;;;;2.30;1.90;;;;;;;6.44;100.00;94544.00;10310373;28;20193;-61
2022/09/28 09:27:40;;;;;;;2.07;1.87;;;;;;;6.77;100.00;94536.53;10310194;28;20218;-64
2022/09/28 09:33:03;;;;;;;3.10;1.93;;;;;;;6.62;100.00;94535.78;10301001;28;20190;-62
2022/09/28 09:38:18;;;;;;;3.90;2.33;;;;;;;7.09;100.00;94538.78;10314242;28;20228;-61
2022/09/28 09:43:57;;;;;;;2.20;2.00;;;;;;;7.02;100.00;94528.31;10286702;28;20202;-63
2022/09/28 09:49:24;;;;;;;2.77;2.57;;;;;;;6.97;100.00;94528.88;10312219;28;20241;-62
2022/09/28 09:54:34;;;;;;;4.07;3.67;;;;;;;7.03;100.00;94534.31;10290236;28;20197;-62
2022/09/28 09:59:39;;;;;;;4.93;4.20;;;;;;;7.20;100.00;94535.69;10305506;28;20210;-63
2022/09/28 10:05:04;;;;;;;5.03;4.53;;;;;;;7.43;100.00;94529.41;10331666;28;20209;-63
2022/09/28 10:10:33;;;;;;;6.10;4.83;;;;;;;7.53;100.00;94521.25;10299543;28;20237;-63
2022/09/28 10:15:41;;;;;;;5.47;4.93;;;;;;;7.41;100.00;94520.97;10314871;28;20237;-57
2022/09/28 10:20:48;;;;;;;7.27;5.03;;;;;;;7.42;100.00;94512.97;10307992;28;20281;-63
2022/09/28 10:25:59;;;;;;;4.23;3.83;;;;;;;7.55;100.00;94521.84;10313083;28;20202;-63
2022/09/28 10:31:00;;;;;;;6.33;5.03;;;;;;;7.64;100.00;94515.50;10316474;28;20206;-62
2022/09/28 10:36:03;;;;;;;5.10;4.60;;;;;;;7.74;100.00;94502.91;10302246;28;20218;-60
2022/09/28 10:41:12;;;;;;;5.33;4.47;;;;;;;7.80;100.00;94503.97;10305271;28;20272;-64
2022/09/28 10:46:24;;;;;;;7.37;4.27;;;;;;;7.49;100.00;94507.81;10311470;28;20872;-62
2022/09/28 10:51:40;;;;;;;5.93;5.33;;;;;;;7.57;100.00;94512.06;10307412;28;20304;-61
2022/09/28 10:56:42;;;;;;;5.93;5.10;;;;;;;7.89;100.00;94518.44;10312086;28;20219;-61
2022/09/28 11:01:55;;;;;;;8.67;6.27;;;;;;;7.71;100.00;94525.97;10304907;28;20202;-58
2022/09/28 11:06:58;;;;;;;5.93;4.93;;;;;;;7.40;100.00;94535.00;10320212;28;20190;-61
2022/09/28 11:12:01;;;;;;;7.07;6.27;;;;;;;7.37;100.00;94532.78;10306296;28;20673;-63
2022/09/28 11:17:32;;;;;;;7.27;6.20;;;;;;;7.25;100.00;94553.34;10307828;28;20370;-65
2022/09/28 11:22:33;;;;;;;5.90;5.17;;;;;;;7.32;100.00;94575.03;10326373;28;20281;-64
2022/09/28 11:27:38;;;;;;;8.23;6.67;;;;;;;7.44;100.00;94572.69;10311097;28;20214;-63
2022/09/28 11:32:42;;;;;;;7.03;4.63;;;;;;;7.52;100.00;94575.16;10309466;28;20643;-62
2022/09/28 11:38:10;;;;;;;8.50;6.20;;;;;;;7.27;100.00;94577.38;10275298;28;20919;-62
2022/09/28 11:43:47;;;;;;;7.47;6.70;;;;;;;7.05;100.00;94585.22;10289503;28;20248;-63
2022/09/28 11:48:54;;;;;;;2.90;2.60;;;;;;;7.40;100.00;94592.31;10289808;28;20209;-60
2022/09/28 11:54:00;;;;;;;2.80;2.50;;;;;;;7.62;100.00;94596.47;10294738;28;20707;-60
2022/09/28 11:59:10;;;;;;;1.87;1.60;;;;;;;7.24;100.00;94601.19;10323931;28;20317;-61
2022/09/28 12:04:41;;;;;;;4.00;3.70;;;;;;;7.08;100.00;94594.47;10309618;28;20220;-56
2022/09/28 12:09:49;;;;;;;1.73;1.63;;;;;;;7.86;100.00;94589.19;10327423;28;20802;-61
2022/09/28 12:14:56;;;;;;;0.80;0.80;;;;;;;7.92;100.00;94596.25;10296045;28;20225;-60
2022/09/28 12:20:15;;;;;;;1.47;1.00;;;;;;;8.07;100.00;94593.53;10305451;28;20250;-62
2022/09/28 12:25:18;;;;;;;1.03;1.03;;;;;;;7.75;100.00;94594.94;10310768;28;20194;-60
2022/09/28 12:30:20;;;;;;;1.57;1.47;;;;;;;8.17;100.00;94596.56;10311047;28;20289;-58
2022/09/28 12:35:45;;;;;;;1.30;1.20;;;;;;;8.53;100.00;94586.91;10305677;28;20653;-62
2022/09/28 12:40:52;;;;;;;0.70;0.70;;;;;;;9.18;100.00;94583.81;10323681;28;20296;-60
2022/09/28 12:46:24;;;;;;;1.13;0.90;;;;;;;8.94;100.00;94572.94;10323232;28;20336;-60
2022/09/28 12:51:51;;;;;;;1.03;1.03;;;;;;;8.55;100.00;94571.88;10318673;28;20221;-59
2022/09/28 12:57:24;;;;;;;1.17;1.00;;;;;;;8.00;100.00;94585.66;10313389;28;20237;-63
2022/09/28 13:02:44;;;;;;;1.00;1.00;;;;;;;8.80;100.00;94592.19;10302196;28;20540;-62
2022/09/28 13:08:09;;;;;;;1.40;1.30;;;;;;;8.11;100.00;94605.16;10315206;28;20618;-60
2022/09/28 13:13:38;;;;;;;4.07;2.67;;;;;;;7.94;100.00;94614.31;10326400;28;20190;-61
2022/09/28 13:19:01;;;;;;;1.13;1.13;;;;;;;8.30;100.00;94639.34;10326499;28;20610;-61
2022/09/28 13:24:04;;;;;;;1.10;1.10;;;;;;;8.08;100.00;94647.28;10309237;28;20186;-63
2022/09/28 13:29:12;;;;;;;1.10;1.10;;;;;;;7.83;100.00;94655.56;10309795;28;20592;-63
2022/09/28 13:34:21;;;;;;;1.93;1.60;;;;;;;8.01;100.00;94657.69;10315252;28;20244;-63
2022/09/28 13:39:36;;;;;;;1.90;1.80;;;;;;;8.07;100.00;94663.94;10318211;28;20217;-62
2022/09/28 13:44:51;;;;;;;4.07;1.90;;;;;;;8.47;100.00;94672.00;10333573;28;20669;-62
2022/09/28 13:50:04;;;;;;;6.00;4.43;;;;;;;8.39;100.00;94667.72;10313255;28;20703;-63
2022/09/28 13:55:26;;;;;;;1.50;1.40;;;;;;;8.46;100.00;94677.41;10331971;28;20759;-63
2022/09/28 14:00:36;;;;;;;1.50;1.40;;;;;;;8.12;100.00;94673.78;10332883;28;20222;-60
2022/09/28 14:05:59;;;;;;;1.40;1.30;;;;;;;8.17;100.00;94672.19;10316658;28;20190;-65
2022/09/28 14:11:23;;;;;;;1.27;1.00;;;;;;;8.28;100.00;94689.13;10333421;28;20326;-61
2022/09/28 14:16:26;;;;;;;1.03;1.00;;;;;;;8.47;100.00;94698.09;10332789;28;20257;-63
2022/09/28 14:21:36;;;;;;;1.00;1.00;;;;;;;8.62;100.00;94697.97;10321453;28;20213;-64
2022/09/28 14:26:57;;;;;;;1.00;1.00;;;;;;;8.78;100.00;94673.31;10332038;28;20205;-62
2022/09/28 14:32:23;;;;;;;7.03;5.30;;;;;;;8.63;100.00;94693.56;10328322;28;20612;-63
2022/09/28 14:43:22;;;;;;;1.50;1.40;;;;;;;8.44;100.00;94698.47;10332279;28;20734;-58
2022/09/28 14:48:42;;;;;;;2.30;2.03;;;;;;;8.62;100.00;94697.97;10331408;28;20214;-61
2022/09/28 14:53:44;;;;;;;1.40;1.30;;;;;;;8.74;100.00;94706.84;10314327;28;20198;-58
2022/09/28 14:58:45;;;;;;;3.17;1.40;;;;;;;8.82;100.00;94711.09;10314506;28;20225;-61
2022/09/28 15:03:47;;;;;;;5.57;2.00;;;;;;;8.70;100.00;94717.88;10304481;28;20750;-61
2022/09/28 15:08:48;;;;;;;2.37;2.13;;;;;;;8.07;100.00;94728.31;10360822;23;20326;-62
2022/09/28 15:13:52;;;;;;;2.57;1.43;;;;;;;8.02;100.00;94734.09;10487141;28;20274;-64
2022/09/28 15:19:22;;;;;;;1.60;1.50;;;;;;;8.21;100.00;94741.25;10474324;28;20381;-64
2022/09/28 15:24:32;;;;;;;2.33;1.60;;;;;;;8.30;100.00;94739.31;10472751;28;20677;-63
2022/09/28 15:29:33;;;;;;;3.13;2.57;;;;;;;8.48;100.00;94731.00;10453580;28;20223;-64
2022/09/28 15:34:50;;;;;;;7.77;4.30;;;;;;;8.38;100.00;94723.50;10469985;28;20203;-63
2022/09/28 15:39:51;;;;;;;2.70;1.87;;;;;;;7.86;100.00;94735.97;10494837;28;20293;-64
2022/09/28 15:45:18;;;;;;;3.07;1.80;;;;;;;7.99;100.00;94747.50;10495123;28;20183;-63
2022/09/28 15:50:27;;;;;;;2.70;1.70;;;;;;;8.21;100.00;94745.69;10491549;28;20242;-62
2022/09/28 15:55:30;;;;;;;2.10;1.90;;;;;;;8.15;100.00;94764.69;10493602;28;20578;-62
2022/09/28 16:00:31;;;;;;;4.73;3.10;;;;;;;8.15;100.00;94783.75;10492635;28;20231;-63
2022/09/28 16:05:37;;;;;;;7.10;3.27;;;;;;;7.85;100.00;94793.53;10492645;28;20183;-64
2022/09/28 16:10:54;;;;;;;3.07;2.30;;;;;;;7.87;100.00;94796.75;10492559;28;20235;-66
2022/09/28 16:15:58;;;;;;;2.57;2.37;;;;;;;7.85;100.00;94799.53;10492538;28;20219;-64
2022/09/28 16:21:19;;;;;;;5.80;4.07;;;;;;;7.37;100.00;94812.28;10493426;28;20296;-64
2022/09/28 16:26:33;;;;;;;5.43;3.20;;;;;;;6.89;100.00;94823.16;10493429;28;20237;-65
2022/09/28 16:31:35;;;;;;;7.00;4.20;;;;;;;6.77;100.00;94833.19;10492984;28;20227;-64
2022/09/28 16:36:44;;;;;;;4.23;2.97;;;;;;;6.76;100.00;94831.56;10481103;28;20277;-65
2022/09/28 16:41:53;;;;;;;5.13;3.83;;;;;;;6.16;100.00;94842.88;10491591;28;20207;-65
2022/09/28 16:46:56;;;;;;;3.60;3.17;;;;;;;5.93;100.00;94848.88;10492423;28;20207;-63
2022/09/28 16:51:56;;;;;;;4.50;3.30;;;;;;;5.56;100.00;94862.56;10489089;28;20284;-63
2022/09/28 16:56:56;;;;;;;5.00;3.93;;;;;;;5.50;100.00;94874.47;10491151;28;20639;-63
2022/09/28 17:01:57;;;;;;;5.23;3.80;;;;;;;5.21;100.00;94873.31;10492431;28;20241;-63
2022/09/28 17:06:58;;;;;;;4.17;3.50;;;;;;;5.12;100.00;94889.91;10490314;28;20274;-63
2022/09/28 17:11:58;;;;;;;4.80;3.77;;;;;;;4.94;100.00;94898.69;10490422;28;20227;-63
2022/09/28 17:17:01;;;;;;;4.23;3.57;;;;;;;4.91;100.00;94896.44;10467544;28;20620;-62
2022/09/28 17:22:02;;;;;;;6.03;4.60;;;;;;;4.70;100.00;94909.94;10485818;28;20694;-63
2022/09/28 17:27:02;;;;;;;12.10;7.33;;;;;;;4.63;100.00;94925.34;10456677;28;20346;-65
2022/09/28 17:32:10;;;;;;;11.03;6.50;;;;;;;4.70;100.00;94942.84;10464621;28;20234;-64
2022/09/28 17:37:12;;;;;;;6.40;5.60;;;;;;;4.84;100.00;94955.16;10464094;28;20215;-64
2022/09/28 17:42:12;;;;;;;6.67;5.30;;;;;;;4.86;100.00;94950.59;10477620;28;20971;-64
2022/09/28 17:47:13;;;;;;;9.37;5.47;;;;;;;4.91;100.00;94945.72;10481307;28;20252;-64
2022/09/28 17:52:13;;;;;;;8.53;5.43;;;;;;;4.93;100.00;94956.78;10492561;28;20211;-64
2022/09/28 17:57:14;;;;;;;9.47;5.80;;;;;;;4.91;100.00;94963.88;10492469;28;20219;-66
2022/09/28 18:02:14;;;;;;;5.83;4.60;;;;;;;4.88;100.00;94958.22;10492286;28;20268;-64
2022/09/28 18:07:14;;;;;;;7.07;4.70;;;;;;;4.99;100.00;94963.06;10492108;28;20185;-65
2022/09/28 18:12:15;;;;;;;7.37;4.80;;;;;;;5.04;100.00;94963.41;10491359;28;20238;-63
2022/09/28 18:17:15;;;;;;;7.23;4.83;;;;;;;4.94;100.00;94960.16;10491556;28;20217;-65
2022/09/28 18:22:16;;;;;;;4.87;4.27;;;;;;;4.98;100.00;94962.25;10497591;28;20207;-63
2022/09/28 18:27:16;;;;;;;6.63;4.60;;;;;;;4.88;100.00;94966.81;10498769;28;20725;-63
2022/09/28 18:32:17;;;;;;;8.17;5.57;;;;;;;4.72;100.00;94961.66;10497944;28;20270;-64
2022/09/28 18:37:17;;;;;;;8.33;5.03;;;;;;;4.76;100.00;94968.97;10498335;28;20211;-62
2022/09/28 18:42:18;;;;;;;6.17;4.33;;;;;;;4.50;100.00;94963.91;10498271;28;20701;-64
2022/09/28 18:47:18;;;;;;;6.37;5.30;;;;;;;4.29;100.00;94969.59;10498167;28;20183;-62
2022/09/28 18:52:19;;;;;;;7.37;5.57;;;;;;;4.11;100.00;94974.91;10494543;28;20732;-60
2022/09/28 18:57:19;;;;;;;6.10;4.67;;;;;;;3.85;100.00;94985.38;10490940;28;20204;-62
2022/09/28 19:02:19;;;;;;;7.30;5.00;;;;;;;3.60;100.00;94987.06;10472241;28;20211;-61
2022/09/28 19:07:20;;;;;;;6.77;5.27;;;;;;;3.50;100.00;94992.38;10474086;28;20188;-60
2022/09/28 19:12:20;;;;;;;7.53;5.23;;;;;;;3.49;100.00;94995.91;10473007;28;20219;-60
2022/09/28 19:17:21;;;;;;;6.53;5.07;;;;;;;3.44;100.00;95009.31;10473704;28;20212;-59
2022/09/28 19:22:21;;;;;;;6.00;4.93;;;;;;;3.56;100.00;95018.44;10472817;28;20207;-61
2022/09/28 19:27:21;;;;;;;5.33;4.63;;;;;;;3.50;100.00;95018.25;10486092;28;20255;-58
2022/09/28 19:32:22;;;;;;;8.40;5.30;;;;;;;3.47;100.00;95013.41;10496327;28;20210;-59
2022/09/28 19:37:22;;;;;;;11.27;7.03;;;;;;;3.47;100.00;95019.38;10496197;28;20250;-56
2022/09/28 19:42:23;;;;;;;12.43;8.60;;;;;;;3.32;100.00;95021.75;10495580;28;20219;-58
2022/09/28 19:47:23;;;;;;;7.73;5.83;;;;;;;3.13;100.00;95022.75;10495611;28;20183;-57
2022/09/28 19:52:23;;;;;;;8.00;5.73;;;;;;;3.04;100.00;95026.25;10494804;28;20219;-59
2022/09/28 19:57:29;;;;;;;9.17;5.83;;;;;;;3.27;100.00;95030.94;10495179;28;20215;-59
2022/09/28 20:02:29;;;;;;;10.93;5.07;;;;;;;3.24;100.00;95033.81;10494380;28;20805;-61
2022/09/28 20:07:31;;;;;;;8.10;5.83;;;;;;;3.34;100.00;95039.72;10494793;28;20308;-59
2022/09/28 20:12:32;;;;;;;6.80;4.83;;;;;;;3.38;100.00;95044.44;10494417;28;20223;-61
2022/09/28 20:17:34;;;;;;;8.53;5.60;;;;;;;3.45;100.00;95042.03;10494156;28;20222;-60
2022/09/28 20:22:35;;;;;;;7.30;4.90;;;;;;;3.50;100.00;95039.78;10494212;28;20681;-59
2022/09/28 20:27:38;;;;;;;10.80;5.13;;;;;;;3.43;100.00;95041.38;10493845;28;20199;-62
2022/09/28 20:32:38;;;;;;;5.53;4.83;;;;;;;3.49;100.00;95047.69;10493224;28;20203;-59
2022/09/28 20:37:38;;;;;;;9.30;4.87;;;;;;;3.55;100.00;95052.25;10493969;28;20223;-59
2022/09/28 20:42:40;;;;;;;6.07;4.77;;;;;;;3.61;100.00;95056.00;10493019;28;20211;-58
2022/09/28 20:47:41;;;;;;;5.37;4.10;;;;;;;3.59;100.00;95053.59;10494057;28;20609;-61
2022/09/28 20:52:41;;;;;;;5.97;4.93;;;;;;;3.57;100.00;95058.13;10493461;28;20249;-61
2022/09/28 20:57:42;;;;;;;5.83;4.50;;;;;;;3.54;100.00;95058.41;10493656;28;20227;-61
2022/09/28 21:02:42;;;;;;;5.47;4.50;;;;;;;3.56;100.00;95064.25;10493190;28;20287;-61
2022/09/28 21:07:42;;;;;;;5.77;3.87;;;;;;;3.65;100.00;95070.28;10492901;28;20312;-61
2022/09/28 21:12:47;;;;;;;5.40;4.00;;;;;;;3.65;100.00;95075.47;10505698;22;20248;-57
2022/09/28 21:17:47;;;;;;;6.50;4.43;;;;;;;3.60;100.00;95075.94;10451471;28;20758;-59
2022/09/28 21:22:47;;;;;;;5.23;3.73;;;;;;;3.55;100.00;95078.97;10451841;28;20298;-59
2022/09/28 21:27:49;;;;;;;6.27;4.50;;;;;;;3.52;100.00;95087.06;10451829;28;20195;-56
2022/09/28 21:32:51;;;;;;;6.07;4.07;;;;;;;3.53;100.00;95086.06;10450438;28;20222;-59
2022/09/28 21:37:51;;;;;;;5.80;4.20;;;;;;;3.41;100.00;95087.28;10449297;28;20251;-58
2022/09/28 21:42:51;;;;;;;4.53;3.50;;;;;;;3.30;100.00;95088.34;10450562;28;20323;-59
2022/09/28 21:47:52;;;;;;;5.03;3.90;;;;;;;3.22;100.00;95094.28;10451542;28;20187;-57
2022/09/28 21:52:53;;;;;;;5.47;4.10;;;;;;;3.19;100.00;95099.75;10450568;28;20216;-57
2022/09/28 21:57:54;;;;;;;5.87;3.67;;;;;;;3.14;100.00;95091.66;10457990;28;20220;-59
2022/09/28 22:02:54;;;;;;;5.70;3.90;;;;;;;3.12;100.00;95095.34;10457786;28;20231;-56
2022/09/28 22:07:54;;;;;;;6.33;3.90;;;;;;;3.07;100.00;95089.81;10458960;28;20192;-58
2022/09/28 22:12:55;;;;;;;6.40;4.07;;;;;;;2.99;100.00;95095.75;10458446;28;20236;-55
2022/09/28 22:17:55;;;;;;;7.30;3.73;;;;;;;3.00;100.00;95108.53;10457427;28;20226;-57
2022/09/28 22:22:55;;;;;;;9.30;4.00;;;;;;;3.06;100.00;95109.69;10457473;28;20302;-57
2022/09/28 22:27:56;;;;;;;5.63;3.57;;;;;;;3.08;100.00;95118.13;10457961;28;20191;-57
2022/09/28 22:32:56;;;;;;;4.60;3.47;;;;;;;3.20;100.00;95111.75;10456510;28;20294;-59
2022/09/28 22:37:58;;;;;;;6.50;3.30;;;;;;;3.25;100.00;95108.72;10457444;28;20224;-55
2022/09/28 22:42:58;;;;;;;4.10;3.50;;;;;;;3.03;100.00;95109.97;10454920;28;20291;-57
2022/09/28 22:47:59;;;;;;;10.53;3.73;;;;;;;2.94;100.00;95110.88;10457541;28;20262;-59
2022/09/28 22:53:00;;;;;;;5.70;3.93;;;;;;;2.91;100.00;95112.00;10455200;28;20219;-54
2022/09/28 22:58:01;;;;;;;7.63;3.97;;;;;;;2.86;100.00;95116.78;10457055;28;20361;-58
2022/09/28 23:03:01;;;;;;;4.53;3.80;;;;;;;2.89;100.00;95123.47;10455348;28;20338;-56
2022/09/28 23:08:02;;;;;;;5.40;3.87;;;;;;;3.02;100.00;95129.06;10456228;28;20184;-57
2022/09/28 23:13:02;;;;;;;4.93;3.50;;;;;;;2.98;100.00;95131.13;10456039;28;20239;-52
2022/09/28 23:18:03;;;;;;;7.43;4.20;;;;;;;2.93;100.00;95127.38;10453902;28;20219;-52
2022/09/28 23:23:03;;;;;;;4.87;3.40;;;;;;;2.79;100.00;95118.38;10453975;28;20215;-55
2022/09/28 23:28:03;;;;;;;5.57;3.73;;;;;;;2.87;100.00;95127.97;10455629;28;20314;-53
2022/09/28 23:33:04;;;;;;;5.80;4.30;;;;;;;2.72;100.00;95133.66;10453924;28;20236;-56
2022/09/28 23:38:05;;;;;;;7.20;4.00;;;;;;;2.80;100.00;95136.31;10455014;28;20723;-53
2022/09/28 23:43:06;;;;;;;5.80;3.73;;;;;;;2.76;100.00;95140.16;10454015;28;20212;-52
2022/09/28 23:48:06;;;;;;;9.53;4.03;;;;;;;2.75;100.00;95137.72;10455008;28;20605;-52
2022/09/28 23:53:07;;;;;;;4.77;4.20;;;;;;;2.80;100.00;95141.50;10454432;28;20208;-54
2022/09/28 23:58:08;;;;;;;4.20;3.57;;;;;;;2.69;100.00;95141.69;10453532;28;20229;-53
